Terminal Aerodrome Forecast
Issued by NWS Lake Charles, LA

Home | Current Version | Previous Version | Text Only | Print | Product List | Glossary On
Versions: 1 2 3 4 5 6 7 8 9 10 11 12 13 14
000
FTUS44 KLCH 202320
TAFBPT
TAF
KBPT 202320Z 2100/2124 23004KT P6SM BKN250
     FM210100 VRB03KT P6SM FEW250
     FM211500 10006KT P6SM SKC
     FM211800 14009KT P6SM VCSH SCT040=

USA.gov is the U.S. government's official web portal to all federal, state and local government web resources and services.